createdAt,value
2018-06-25T00:00:54.987Z,21.47
2018-06-25T00:03:23.132Z,20.40
2018-06-25T00:05:51.189Z,19.63
2018-06-25T00:08:19.248Z,19.53
2018-06-25T00:10:53.391Z,20.13
2018-06-25T00:13:21.462Z,19.70
2018-06-25T00:15:49.562Z,19.47
2018-06-25T00:18:17.644Z,19.53
2018-06-25T00:20:45.681Z,18.87
2018-06-25T00:23:23.997Z,21.30
2018-06-25T00:25:52.060Z,21.20
2018-06-25T00:28:19.912Z,21.53
2018-06-25T00:30:54.091Z,21.60
2018-06-25T00:33:22.124Z,20.60
2018-06-25T00:35:53.304Z,24.07
2018-06-25T00:38:21.354Z,23.03
2018-06-25T00:40:49.405Z,22.00
2018-06-25T00:43:23.852Z,23.70
2018-06-25T00:45:51.950Z,22.70
2018-06-25T00:48:25.497Z,23.97
2018-06-25T00:50:53.674Z,23.77
2018-06-25T00:53:21.741Z,22.33
2018-06-25T00:55:49.812Z,23.07
2018-06-25T00:58:23.394Z,23.47
2018-06-25T01:00:54.677Z,23.40
2018-06-25T01:03:22.797Z,26.07
2018-06-25T01:05:50.877Z,23.93
2018-06-25T01:08:18.925Z,24.43
2018-06-25T01:22:18.766Z,26.10
2018-06-25T01:24:46.913Z,26.30
2018-06-25T01:27:15.029Z,27.00
2018-06-25T01:29:43.097Z,28.67
2018-06-25T01:32:11.201Z,25.37
2018-06-25T01:34:39.280Z,26.80
2018-06-25T01:37:13.845Z,30.37
2018-06-25T01:39:41.890Z,26.80
2018-06-25T01:42:09.934Z,29.50
2018-06-25T01:44:37.997Z,32.27
2018-06-25T01:47:13.725Z,29.83
2018-06-25T01:49:41.756Z,29.30
2018-06-25T01:52:09.812Z,30.90
2018-06-25T01:54:43.957Z,33.80
2018-06-25T01:57:12.004Z,35.77
2018-06-25T01:59:43.842Z,35.87
2018-06-25T02:02:11.893Z,34.97
2018-06-25T02:04:39.936Z,33.43
2018-06-25T02:07:08.049Z,36.43
2018-06-25T02:09:36.298Z,35.67
2018-06-25T02:12:13.812Z,36.43
2018-06-25T02:14:41.876Z,36.70
2018-06-25T02:17:15.835Z,36.73
2018-06-25T02:19:53.849Z,37.13
2018-06-25T02:22:23.846Z,37.40
2018-06-25T02:24:55.025Z,35.97
2018-06-25T02:27:23.954Z,36.77
2018-06-25T02:29:51.994Z,37.03
2018-06-25T02:32:20.033Z,39.83
2018-06-25T02:34:48.104Z,38.07
2018-06-25T02:37:16.345Z,37.83
2018-06-25T02:39:44.451Z,40.37
2018-06-25T02:42:15.660Z,34.07
2018-06-25T02:44:44.391Z,36.53
2018-06-25T02:47:14.138Z,35.33
2018-06-25T02:49:42.473Z,34.77
2018-06-25T02:52:10.527Z,36.33
2018-06-25T02:54:38.806Z,37.40
2018-06-25T02:57:13.685Z,37.33
2018-06-25T02:59:41.733Z,38.97
2018-06-25T03:02:09.767Z,40.17
2018-06-25T03:04:44.040Z,41.07
2018-06-25T03:07:12.089Z,42.03
2018-06-25T03:09:43.866Z,37.07
2018-06-25T03:12:15.605Z,38.10
2018-06-25T03:14:44.652Z,40.63
2018-06-25T03:17:12.709Z,40.80
2018-06-25T03:19:44.093Z,39.23
2018-06-25T03:22:12.176Z,38.57
2018-06-25T03:24:40.269Z,36.40
2018-06-25T03:27:08.365Z,36.30
2018-06-25T03:29:43.885Z,36.17
2018-06-25T03:32:14.966Z,33.00
2018-06-25T03:34:44.052Z,38.03
2018-06-25T03:37:12.138Z,37.60
2018-06-25T03:39:40.245Z,35.20
2018-06-25T03:42:08.313Z,34.83
2018-06-25T03:44:44.172Z,34.77
2018-06-25T03:47:12.261Z,34.87
2018-06-25T03:49:40.361Z,36.00
2018-06-25T03:52:14.243Z,34.43
2018-06-25T03:54:42.344Z,33.87
2018-06-25T03:57:14.216Z,35.27
2018-06-25T03:59:42.296Z,34.23
2018-06-25T04:02:10.361Z,36.27
2018-06-25T04:04:38.452Z,35.73
2018-06-25T04:07:13.922Z,35.50
2018-06-25T04:09:42.015Z,34.73
2018-06-25T04:12:14.118Z,34.53
2018-06-25T04:14:44.082Z,35.83
2018-06-25T04:17:12.187Z,36.23
2018-06-25T04:19:40.281Z,31.50
2018-06-25T04:22:13.884Z,31.53
2018-06-25T04:24:45.146Z,27.57
2018-06-25T04:27:13.213Z,32.13
2018-06-25T04:29:41.289Z,30.40
2018-06-25T04:32:09.427Z,32.47
2018-06-25T04:34:43.618Z,29.77
2018-06-25T04:37:11.729Z,30.90
2018-06-25T04:39:46.019Z,29.67
2018-06-25T04:42:24.025Z,27.53
2018-06-25T04:44:56.260Z,28.10
2018-06-25T04:47:34.048Z,27.43
2018-06-25T04:50:02.164Z,29.50
2018-06-25T04:52:30.242Z,28.23
2018-06-25T04:54:58.130Z,25.37
2018-06-25T04:57:33.930Z,26.63
2018-06-25T05:00:04.165Z,21.47
2018-06-25T05:02:32.244Z,23.07
2018-06-25T05:05:00.134Z,24.30
2018-06-25T05:07:28.293Z,25.40
2018-06-25T05:10:03.430Z,23.90
2018-06-25T05:12:35.409Z,22.47
2018-06-25T05:15:04.016Z,20.87
2018-06-25T05:17:32.109Z,20.80
2018-06-25T05:20:00.186Z,22.43
2018-06-25T05:22:28.283Z,21.77
2018-06-25T05:25:03.525Z,20.87
2018-06-25T05:27:31.586Z,19.03
2018-06-25T05:29:59.662Z,19.83
2018-06-25T05:32:27.802Z,18.37
2018-06-25T05:34:55.986Z,18.70
2018-06-25T05:37:24.044Z,19.40
2018-06-25T05:39:52.105Z,19.80
2018-06-25T05:42:21.778Z,17.93
2018-06-25T05:44:51.001Z,19.70
2018-06-25T05:47:22.277Z,19.47
2018-06-25T05:49:50.313Z,18.87
2018-06-25T05:52:23.984Z,18.27
2018-06-25T05:54:52.368Z,17.03
2018-06-25T05:57:20.466Z,18.17
2018-06-25T05:59:48.551Z,18.00
2018-06-25T06:02:24.910Z,18.10
2018-06-25T06:04:53.158Z,17.20
2018-06-25T06:07:21.521Z,18.00
2018-06-25T06:09:55.158Z,16.40
2018-06-25T06:12:24.643Z,14.30
2018-06-25T06:14:52.712Z,14.60
2018-06-25T06:17:24.370Z,12.53
2018-06-25T06:19:52.512Z,15.93
2018-06-25T06:22:24.528Z,15.20
2018-06-25T06:24:52.658Z,14.13
2018-06-25T06:27:20.858Z,14.57
2018-06-25T06:29:48.996Z,15.60
2018-06-25T06:32:17.073Z,17.07
2018-06-25T06:34:45.165Z,17.80
2018-06-25T06:37:13.293Z,19.73
2018-06-25T06:39:44.960Z,21.57
2018-06-25T06:42:13.084Z,21.87
2018-06-25T06:44:41.179Z,22.33
2018-06-25T06:47:10.977Z,22.57
2018-06-25T06:49:40.991Z,21.13
2018-06-25T06:52:09.081Z,23.20
2018-06-25T06:54:37.191Z,22.20
2018-06-25T06:57:13.334Z,23.20
2018-06-25T06:59:41.435Z,23.60
2018-06-25T07:02:09.497Z,24.63
2018-06-25T07:04:37.607Z,24.97
2018-06-25T07:07:08.055Z,20.73
2018-06-25T07:09:36.143Z,21.80
2018-06-25T07:12:04.224Z,21.57
2018-06-25T07:14:32.350Z,21.47
2018-06-25T07:17:00.410Z,19.30
2018-06-25T07:19:28.500Z,19.23
2018-06-25T07:22:03.721Z,17.80
2018-06-25T07:24:32.952Z,16.73
2018-06-25T07:27:01.048Z,15.90
2018-06-25T07:29:34.953Z,15.40
2018-06-25T07:32:03.052Z,14.60
2018-06-25T07:34:34.765Z,13.40
2018-06-25T07:37:02.848Z,13.23
2018-06-25T07:39:34.102Z,13.43
2018-06-25T07:42:02.217Z,13.43
2018-06-25T07:44:35.873Z,12.73
2018-06-25T07:47:06.773Z,12.97
2018-06-25T07:49:34.841Z,13.20
2018-06-25T07:52:04.606Z,11.87
2018-06-25T07:54:45.084Z,11.30
2018-06-25T07:57:14.597Z,10.67
2018-06-25T07:59:42.677Z,9.73
2018-06-25T08:02:14.329Z,9.43
2018-06-25T08:04:44.161Z,8.50
2018-06-25T08:07:12.258Z,8.57
2018-06-25T08:09:40.327Z,8.53
2018-06-25T08:12:14.687Z,8.07
2018-06-25T08:14:42.781Z,6.73
2018-06-25T08:17:10.910Z,8.23
2018-06-25T08:19:44.866Z,6.70
2018-06-25T08:22:13.964Z,7.33
2018-06-25T08:24:42.432Z,6.87
2018-06-25T08:27:10.531Z,6.90
2018-06-25T08:29:38.753Z,6.00
2018-06-25T08:32:13.434Z,5.87
2018-06-25T08:34:41.486Z,7.07
2018-06-25T08:37:09.463Z,6.17
2018-06-25T08:39:43.513Z,5.50
2018-06-25T08:42:11.620Z,5.20
2018-06-25T08:44:45.807Z,4.90
2018-06-25T08:47:13.958Z,4.90
2018-06-25T08:49:42.069Z,4.83
2018-06-25T08:52:15.876Z,5.10
2018-06-25T08:54:54.449Z,4.80
2018-06-25T08:57:22.544Z,4.80
2018-06-25T08:59:50.648Z,4.60
2018-06-25T09:02:24.353Z,4.72
2018-06-25T09:04:52.855Z,3.90
2018-06-25T09:07:23.210Z,4.53
2018-06-25T09:09:57.720Z,4.58
2018-06-25T09:12:34.153Z,4.90
2018-06-25T09:15:02.233Z,4.30
2018-06-25T09:17:30.389Z,4.75
2018-06-25T09:19:58.567Z,4.40
2018-06-25T09:22:33.454Z,4.90
2018-06-25T09:25:01.558Z,4.92
2018-06-25T09:27:33.993Z,4.92
2018-06-25T09:30:02.114Z,5.03
2018-06-25T09:32:30.246Z,5.30
2018-06-25T09:34:58.363Z,5.20
2018-06-25T09:37:26.544Z,5.12
2018-06-25T09:39:54.649Z,4.62
2018-06-25T09:42:22.763Z,4.60
2018-06-25T09:44:51.102Z,4.90
2018-06-25T09:47:19.176Z,4.35
2018-06-25T09:49:47.277Z,4.60
2018-06-25T09:52:23.670Z,4.53
2018-06-25T09:54:52.204Z,4.83
2018-06-25T09:57:20.405Z,4.80
2018-06-25T09:59:54.711Z,3.90
2018-06-25T10:02:22.856Z,4.40
2018-06-25T10:04:54.379Z,3.90
2018-06-25T10:07:22.780Z,3.77
2018-06-25T10:09:56.634Z,4.08
2018-06-25T10:12:24.798Z,4.25
2018-06-25T10:14:52.976Z,4.20
2018-06-25T10:17:24.735Z,4.50
2018-06-25T10:19:52.896Z,4.47
2018-06-25T10:22:24.324Z,3.77
2018-06-25T10:24:52.472Z,3.83
2018-06-25T10:27:20.646Z,4.12
2018-06-25T10:29:48.569Z,4.50
2018-06-25T10:32:23.904Z,4.58
2018-06-25T10:34:52.226Z,3.40
2018-06-25T10:37:20.354Z,3.98
2018-06-25T10:39:48.472Z,3.70
2018-06-25T10:42:23.673Z,4.60
2018-06-25T10:44:55.663Z,4.50
2018-06-25T10:47:23.946Z,4.50
2018-06-25T10:49:52.173Z,4.45
2018-06-25T10:52:20.462Z,3.83
2018-06-25T10:54:49.193Z,3.50
2018-06-25T10:57:17.491Z,3.47
2018-06-25T10:59:45.713Z,3.52
2018-06-25T11:02:13.829Z,3.47
2018-06-25T11:04:46.072Z,3.40
2018-06-25T11:07:14.360Z,3.40
2018-06-25T11:09:42.446Z,3.15
2018-06-25T11:12:16.548Z,3.80
2018-06-25T11:14:45.007Z,3.60
2018-06-25T11:17:13.191Z,3.40
2018-06-25T11:19:41.318Z,3.62
2018-06-25T11:22:09.454Z,3.35
2018-06-25T11:24:37.586Z,3.60
2018-06-25T11:27:14.060Z,3.27
2018-06-25T11:29:42.233Z,3.60
2018-06-25T11:32:16.252Z,3.80
2018-06-25T11:34:44.475Z,4.05
2018-06-25T11:37:12.441Z,4.12
2018-06-25T11:39:40.626Z,3.62
2018-06-25T11:42:08.891Z,3.45
2018-06-25T11:44:44.212Z,3.25
2018-06-25T11:47:12.524Z,3.72
2018-06-25T11:49:40.724Z,3.60
2018-06-25T11:52:08.905Z,3.45
2018-06-25T11:54:44.449Z,3.62
2018-06-25T12:00:06.546Z,4.20
2018-06-25T12:02:34.709Z,4.60
2018-06-25T12:05:02.920Z,3.95
2018-06-25T12:07:33.834Z,4.35
2018-06-25T12:10:02.062Z,3.52
2018-06-25T12:12:36.112Z,3.95
2018-06-25T12:15:13.730Z,5.40
2018-06-25T12:17:41.926Z,4.90
2018-06-25T12:20:10.111Z,5.37
2018-06-25T12:22:38.210Z,4.05
2018-06-25T12:25:14.008Z,4.25
2018-06-25T12:27:42.217Z,4.15
2018-06-25T12:30:10.611Z,4.30
2018-06-25T12:32:44.939Z,4.10
2018-06-25T12:35:16.878Z,4.20
2018-06-25T12:37:45.018Z,4.53
2018-06-25T12:40:13.150Z,4.17
2018-06-25T12:42:44.893Z,4.37
2018-06-25T12:45:14.899Z,4.10
2018-06-25T12:47:45.405Z,4.25
2018-06-25T12:50:13.530Z,4.50
2018-06-25T12:52:41.756Z,4.83
2018-06-25T12:55:09.851Z,4.95
2018-06-25T12:57:37.951Z,5.05
2018-06-25T13:00:06.058Z,5.35
2018-06-25T13:02:44.291Z,5.25
2018-06-25T13:05:12.516Z,5.58
2018-06-25T13:07:46.533Z,5.30
2018-06-25T13:10:14.730Z,5.35
2018-06-25T13:12:48.330Z,5.35
2018-06-25T13:15:26.373Z,5.70
2018-06-25T13:18:05.167Z,5.67
2018-06-25T13:20:33.412Z,5.53
2018-06-25T13:23:04.558Z,6.05
2018-06-25T13:25:32.896Z,6.05
2018-06-25T13:28:04.834Z,5.70
2018-06-25T13:30:32.952Z,5.65
2018-06-25T13:33:01.096Z,6.05
2018-06-25T13:35:29.255Z,6.22
2018-06-25T13:37:57.786Z,5.25
2018-06-25T13:40:33.828Z,5.53
2018-06-25T13:43:02.066Z,5.90
2018-06-25T13:45:30.306Z,5.53
2018-06-25T13:47:58.489Z,6.25
2018-06-25T13:50:26.612Z,6.08
2018-06-25T13:52:54.747Z,6.05
2018-06-25T13:55:22.886Z,6.20
2018-06-25T13:57:54.703Z,5.67
2018-06-25T14:00:25.200Z,6.03
2018-06-25T14:02:53.513Z,6.65
2018-06-25T14:05:21.606Z,7.60
2018-06-25T14:07:49.809Z,7.53
2018-06-25T14:10:17.994Z,8.03
2018-06-25T14:12:46.121Z,6.35
2018-06-25T14:15:24.520Z,5.45
2018-06-25T14:17:52.785Z,4.83
2018-06-25T14:20:20.954Z,4.30
2018-06-25T14:22:51.191Z,4.75
2018-06-25T14:25:24.820Z,3.75
2018-06-25T14:28:00.372Z,3.90
2018-06-25T14:30:34.023Z,3.80
2018-06-25T14:33:03.650Z,3.70
2018-06-25T14:35:32.129Z,3.60
2018-06-25T14:38:00.287Z,4.03
2018-06-25T14:40:33.885Z,3.40
2018-06-25T14:43:01.958Z,3.67
2018-06-25T14:45:35.748Z,2.90
2018-06-25T14:48:03.935Z,4.12
2018-06-25T14:50:35.195Z,3.98
2018-06-25T14:53:03.345Z,3.65
2018-06-25T14:55:31.525Z,3.62
2018-06-25T14:58:05.997Z,3.52
2018-06-25T15:00:35.162Z,3.52
2018-06-25T15:03:03.376Z,3.67
2018-06-25T15:05:34.875Z,3.47
2018-06-25T15:08:04.360Z,3.72
2018-06-25T15:10:32.551Z,3.15
2018-06-25T15:13:00.899Z,2.85
2018-06-25T15:15:30.729Z,2.90
2018-06-25T15:17:58.863Z,3.15
2018-06-25T15:20:27.101Z,3.22
2018-06-25T15:22:55.290Z,3.60
2018-06-25T15:25:25.153Z,3.05
2018-06-25T15:27:54.886Z,3.40
2018-06-25T15:30:24.818Z,3.62
2018-06-25T15:32:53.014Z,3.65
2018-06-25T15:35:21.270Z,3.42
2018-06-25T15:37:49.398Z,3.98
2018-06-25T15:40:17.537Z,3.40
2018-06-25T15:42:45.609Z,3.77
2018-06-25T15:45:14.554Z,4.30
2018-06-25T15:47:42.669Z,4.42
2018-06-25T15:50:10.765Z,4.60
2018-06-25T15:52:38.882Z,4.12
2018-06-25T15:55:14.532Z,4.07
2018-06-25T15:57:43.772Z,4.77
2018-06-25T16:00:11.949Z,4.23
2018-06-25T16:02:40.074Z,4.70
2018-06-25T16:05:08.213Z,4.57
2018-06-25T16:07:36.456Z,4.60
2018-06-25T16:10:04.740Z,4.22
2018-06-25T16:12:36.172Z,4.33
2018-06-25T16:15:04.347Z,4.17
2018-06-25T16:17:34.449Z,4.40
2018-06-25T16:20:02.642Z,5.03
2018-06-25T16:22:36.341Z,4.83
2018-06-25T16:25:04.771Z,6.00
2018-06-25T16:27:32.862Z,5.28
2018-06-25T16:30:01.022Z,5.10
2018-06-25T16:32:29.702Z,4.75
2018-06-25T16:34:57.995Z,5.10
2018-06-25T16:37:34.261Z,6.08
2018-06-25T16:40:02.483Z,6.40
2018-06-25T16:42:34.391Z,5.90
2018-06-25T16:45:02.644Z,6.00
2018-06-25T16:47:30.823Z,7.30
2018-06-25T16:49:58.832Z,7.17
2018-06-25T16:52:33.882Z,6.63
2018-06-25T16:55:02.005Z,7.13
2018-06-25T16:57:30.098Z,6.90
2018-06-25T16:59:58.188Z,6.00
2018-06-25T17:02:34.017Z,5.57
2018-06-25T17:05:02.124Z,6.23
2018-06-25T17:07:30.200Z,6.17
2018-06-25T17:09:58.301Z,5.63
2018-06-25T17:12:26.420Z,6.30
2018-06-25T17:14:54.533Z,5.97
2018-06-25T17:17:25.681Z,6.30
2018-06-25T17:19:53.773Z,6.37
2018-06-25T17:22:25.573Z,6.57
2018-06-25T17:24:53.658Z,6.70
2018-06-25T17:27:21.770Z,6.43
2018-06-25T17:29:55.857Z,6.87
2018-06-25T17:32:25.230Z,7.47
2018-06-25T17:34:53.603Z,7.23
2018-06-25T17:37:22.266Z,7.40
2018-06-25T17:39:50.366Z,7.30
2018-06-25T17:42:18.829Z,8.20
2018-06-25T17:44:46.971Z,8.40
2018-06-25T17:47:25.488Z,8.80
2018-06-25T17:49:53.581Z,7.77
2018-06-25T17:52:24.915Z,8.63
2018-06-25T17:54:53.019Z,9.03
2018-06-25T18:00:12.702Z,9.30
2018-06-25T18:02:40.928Z,9.27
2018-06-25T18:05:15.395Z,9.00
2018-06-25T18:07:43.527Z,9.27
2018-06-25T18:10:15.438Z,8.60
2018-06-25T18:12:45.089Z,8.90
2018-06-25T18:15:13.195Z,9.13
2018-06-25T18:17:45.175Z,9.23
2018-06-25T18:20:14.804Z,8.60
2018-06-25T18:22:44.544Z,9.47
2018-06-25T18:25:12.674Z,9.60
2018-06-25T18:27:40.779Z,8.37
2018-06-25T18:30:08.709Z,8.70
2018-06-25T18:32:36.855Z,9.33
2018-06-25T18:35:15.257Z,9.00
2018-06-25T18:37:43.350Z,9.20
2018-06-25T18:40:15.343Z,9.13
2018-06-25T18:42:43.454Z,9.93
2018-06-25T18:45:14.662Z,8.63
2018-06-25T18:47:42.821Z,9.73
2018-06-25T18:50:14.347Z,9.00
2018-06-25T18:52:42.651Z,9.57
2018-06-25T18:55:10.806Z,9.30
2018-06-25T18:57:44.536Z,9.13
2018-06-25T19:00:15.920Z,9.80
2018-06-25T19:02:44.016Z,9.80
2018-06-25T19:05:12.146Z,9.93
2018-06-25T19:07:40.271Z,9.43
2018-06-25T19:10:14.367Z,10.37
2018-06-25T19:12:42.502Z,10.70
2018-06-25T19:15:10.656Z,9.93
2018-06-25T19:17:38.743Z,10.40
2018-06-25T19:20:07.072Z,9.80
2018-06-25T19:22:35.215Z,10.87
2018-06-25T19:25:05.311Z,10.63
2018-06-25T19:27:33.455Z,10.33
2018-06-25T19:30:01.624Z,10.93
2018-06-25T19:32:29.737Z,11.17
2018-06-25T19:34:57.887Z,11.30
2018-06-25T19:37:34.394Z,11.30
2018-06-25T19:40:02.462Z,11.83
2018-06-25T19:42:30.659Z,11.13
2018-06-25T19:44:58.769Z,12.30
2018-06-25T19:47:34.335Z,11.93
2018-06-25T19:50:02.444Z,11.73
2018-06-25T19:52:30.446Z,11.77
2018-06-25T19:55:04.053Z,12.13
2018-06-25T19:57:35.317Z,13.00
2018-06-25T20:00:03.574Z,13.43
2018-06-25T20:02:34.846Z,12.87
2018-06-25T20:05:04.868Z,13.17
2018-06-25T20:07:32.978Z,13.30
2018-06-25T20:10:06.687Z,14.10
2018-06-25T20:12:34.860Z,12.83
2018-06-25T20:15:04.717Z,13.60
2018-06-25T20:17:32.766Z,12.83
2018-06-25T20:20:06.414Z,13.47
2018-06-25T20:22:44.037Z,13.00
2018-06-25T20:25:15.211Z,14.10
2018-06-25T20:27:43.253Z,12.97
2018-06-25T20:30:14.793Z,13.50
2018-06-25T20:32:44.547Z,12.83
2018-06-25T20:35:12.632Z,13.40
2018-06-25T20:37:46.599Z,12.27
2018-06-25T20:40:25.126Z,13.03
2018-06-25T20:42:53.207Z,12.70
2018-06-25T20:45:21.382Z,13.30
2018-06-25T20:47:55.343Z,13.70
2018-06-25T20:50:24.500Z,13.67
2018-06-25T20:52:52.548Z,14.97
2018-06-25T20:55:26.571Z,14.30
2018-06-25T20:58:04.285Z,14.57
2018-06-25T21:00:32.442Z,14.43
2018-06-25T21:03:00.530Z,15.00
2018-06-25T21:05:34.390Z,15.03
2018-06-25T21:08:02.450Z,15.20
2018-06-25T21:10:36.708Z,14.37
2018-06-25T21:15:57.478Z,15.77
2018-06-25T21:18:25.690Z,14.90
2018-06-25T21:20:53.802Z,14.50
2018-06-25T21:23:25.708Z,14.80
2018-06-25T21:25:53.816Z,14.70
2018-06-25T21:28:25.718Z,14.23
2018-06-25T21:30:54.390Z,14.23
2018-06-25T21:33:26.199Z,14.40
2018-06-25T21:35:54.389Z,14.57
2018-06-25T21:38:22.403Z,15.97
2018-06-25T21:40:50.481Z,15.30
2018-06-25T21:43:18.551Z,15.30
2018-06-25T21:45:53.829Z,16.20
2018-06-25T21:48:21.912Z,16.20
2018-06-25T21:50:49.991Z,15.90
2018-06-25T21:53:18.077Z,16.37
2018-06-25T21:55:54.314Z,16.97
2018-06-25T21:58:22.380Z,17.20
2018-06-25T22:00:51.860Z,16.00
2018-06-25T22:03:25.500Z,16.87
2018-06-25T22:05:53.532Z,15.23
2018-06-25T22:08:21.616Z,16.30
2018-06-25T22:10:49.688Z,14.57
2018-06-25T22:13:17.834Z,13.90
2018-06-25T22:15:45.869Z,13.83
2018-06-25T22:18:13.931Z,13.70
2018-06-25T22:20:41.990Z,12.37
2018-06-25T22:23:15.513Z,12.67
2018-06-25T22:25:44.752Z,12.50
2018-06-25T22:28:14.505Z,12.17
2018-06-25T22:30:42.555Z,12.67
2018-06-25T22:33:10.694Z,12.13
2018-06-25T22:35:44.592Z,11.83
2018-06-25T22:38:15.865Z,11.23
2018-06-25T22:40:44.657Z,11.70
2018-06-25T22:43:12.725Z,12.37
2018-06-25T22:45:40.798Z,11.53
2018-06-25T22:48:14.438Z,11.33
2018-06-25T22:50:42.498Z,11.20
2018-06-25T22:53:10.531Z,12.13
2018-06-25T22:55:38.577Z,11.10
2018-06-25T22:58:14.479Z,10.20
2018-06-25T23:00:42.514Z,10.53
2018-06-25T23:03:10.564Z,11.07
2018-06-25T23:05:44.908Z,11.10
2018-06-25T23:08:12.974Z,10.10
2018-06-25T23:10:44.997Z,10.17
2018-06-25T23:13:13.047Z,9.97
2018-06-25T23:15:44.510Z,9.33
2018-06-25T23:18:16.319Z,10.23
2018-06-25T23:20:54.572Z,10.43
2018-06-25T23:23:22.653Z,10.23
2018-06-25T23:25:50.745Z,10.23
2018-06-25T23:28:24.782Z,10.13
2018-06-25T23:30:52.862Z,10.30
2018-06-25T23:33:24.658Z,10.77
2018-06-25T23:35:54.434Z,9.90
2018-06-25T23:38:22.493Z,10.20
2018-06-25T23:40:50.777Z,10.50
2018-06-25T23:43:24.761Z,10.73
2018-06-25T23:45:52.830Z,11.80
2018-06-25T23:48:20.888Z,11.80
2018-06-25T23:50:49.039Z,11.80
2018-06-25T23:53:17.058Z,12.50
2018-06-25T23:55:55.136Z,11.77
2018-06-25T23:58:24.680Z,12.30
